createdAt,value
2019-02-23T00:00:18.967Z,2.9
2019-02-23T00:02:18.607Z,5.5
2019-02-23T00:04:19.231Z,3.1
2019-02-23T00:06:30.257Z,2.9
2019-02-23T00:08:18.940Z,8.1
2019-02-23T00:10:19.024Z,3.6
2019-02-23T00:12:18.677Z,5.8
2019-02-23T00:14:19.309Z,7.8
2019-02-23T00:16:18.638Z,8.1
2019-02-23T00:18:19.341Z,4.9
2019-02-23T00:20:18.984Z,4.7
2019-02-23T00:22:18.611Z,2.7
2019-02-23T00:24:19.261Z,4.1
2019-02-23T00:26:19.524Z,5
2019-02-23T00:28:19.148Z,4.9
2019-02-23T00:30:18.753Z,5.7
2019-02-23T00:32:19.424Z,4.3
2019-02-23T00:34:19.064Z,5.6
2019-02-23T00:36:18.886Z,9.2
2019-02-23T00:38:19.505Z,3.8
2019-02-23T00:40:18.664Z,5.3
2019-02-23T00:42:19.298Z,3.9
2019-02-23T00:44:18.931Z,5.2
2019-02-23T00:46:19.235Z,3.1
2019-02-23T00:48:18.864Z,5
2019-02-23T00:50:19.531Z,6.1
2019-02-23T00:52:19.531Z,5.5
2019-02-23T00:54:19.161Z,10.3
2019-02-23T00:56:18.642Z,4.9
2019-02-23T00:58:19.280Z,4.9
2019-02-23T01:00:18.910Z,5.1
2019-02-23T01:02:19.537Z,4.2
2019-02-23T01:04:19.177Z,3.3
2019-02-23T01:06:19.003Z,4.4
2019-02-23T01:08:18.664Z,2.7
2019-02-23T01:10:19.825Z,3.1
2019-02-23T01:12:19.216Z,5.8
2019-02-23T01:14:18.846Z,6.4
2019-02-23T01:16:19.116Z,9.3
2019-02-23T01:18:18.806Z,3.4
2019-02-23T01:20:19.440Z,7.4
2019-02-23T01:22:19.075Z,6.4
2019-02-23T01:24:18.713Z,4
2019-02-23T01:26:18.997Z,4.1
2019-02-23T01:28:18.625Z,3.8
2019-02-23T01:30:19.279Z,3.6
2019-02-23T01:32:18.920Z,4.1
2019-02-23T01:34:19.531Z,3.6
2019-02-23T01:36:19.522Z,5.1
2019-02-23T01:38:19.144Z,6.4
2019-02-23T01:40:19.290Z,5.5
2019-02-23T01:42:18.933Z,5.8
2019-02-23T01:44:19.540Z,3.2
2019-02-23T01:46:19.493Z,5.6
2019-02-23T01:48:19.132Z,9.4
2019-02-23T01:50:18.801Z,2.9
2019-02-23T01:52:19.478Z,4.4
2019-02-23T01:54:19.089Z,6.8
2019-02-23T01:56:19.197Z,6.4
2019-02-23T01:58:18.914Z,5.1
2019-02-23T02:00:18.603Z,6.1
2019-02-23T02:02:19.211Z,5
2019-02-23T02:04:18.826Z,6.3
2019-02-23T02:06:19.154Z,4
2019-02-23T02:08:18.794Z,5.8
2019-02-23T02:10:18.910Z,14.1
2019-02-23T02:12:19.537Z,7.5
2019-02-23T02:14:19.142Z,9.9
2019-02-23T02:16:19.462Z,9.2
2019-02-23T02:18:19.178Z,7.5
2019-02-23T02:20:18.791Z,3.9
2019-02-23T02:22:19.387Z,4
2019-02-23T02:24:19.006Z,6.4
2019-02-23T02:26:18.864Z,7.5
2019-02-23T02:28:19.483Z,8.5
2019-02-23T02:30:19.109Z,7.4
2019-02-23T02:32:18.734Z,10.3
2019-02-23T02:34:19.376Z,7.7
2019-02-23T02:36:19.169Z,5.6
2019-02-23T02:38:18.884Z,11.3
2019-02-23T02:40:19.054Z,8.1
2019-02-23T02:42:18.684Z,5.7
2019-02-23T02:44:19.288Z,7.4
2019-02-23T02:46:18.692Z,3.7
2019-02-23T02:48:19.324Z,5.4
2019-02-23T02:50:25.005Z,5
2019-02-23T02:52:18.668Z,6.3
2019-02-23T02:54:19.292Z,8.9
2019-02-23T02:56:18.660Z,7.9
2019-02-23T02:58:19.417Z,5.6
2019-02-23T03:00:19.076Z,8.6
2019-02-23T03:02:18.752Z,13.4
2019-02-23T03:04:19.345Z,14.3
2019-02-23T03:06:19.500Z,7.3
2019-02-23T03:08:19.133Z,6.7
2019-02-23T03:10:19.202Z,5.4
2019-02-23T03:12:18.828Z,6.1
2019-02-23T03:14:19.567Z,7.6
2019-02-23T03:16:19.453Z,7.3
2019-02-23T03:18:19.174Z,11.5
2019-02-23T03:20:18.798Z,7
2019-02-23T03:22:19.439Z,5.6
2019-02-23T03:24:19.073Z,7.9
2019-02-23T03:26:18.877Z,10.7
2019-02-23T03:28:19.500Z,7.8
2019-02-23T03:30:19.227Z,6.8
2019-02-23T03:32:18.858Z,9.5
2019-02-23T03:34:19.505Z,7
2019-02-23T03:36:19.417Z,10.5
2019-02-23T03:38:19.047Z,10.2
2019-02-23T03:40:19.135Z,12
2019-02-23T03:42:18.764Z,10.8
2019-02-23T03:44:19.417Z,6
2019-02-23T03:46:19.301Z,6.1
2019-02-23T03:48:18.924Z,5.2
2019-02-23T03:50:19.587Z,7.1
2019-02-23T03:52:19.233Z,9.6
2019-02-23T03:54:18.858Z,11.7
2019-02-23T03:56:19.172Z,12.4
2019-02-23T03:58:18.792Z,9.4
2019-02-23T04:00:19.441Z,10.2
2019-02-23T04:02:19.058Z,9.2
2019-02-23T04:04:18.683Z,8
2019-02-23T04:06:18.921Z,6.6
2019-02-23T04:08:19.542Z,12.3
2019-02-23T04:10:18.696Z,9.6
2019-02-23T04:12:19.329Z,10
2019-02-23T04:14:19.004Z,6.8
2019-02-23T04:16:18.804Z,9.1
2019-02-23T04:18:19.505Z,13.9
2019-02-23T04:20:19.240Z,16.3
2019-02-23T04:22:19.559Z,10.7
2019-02-23T04:24:19.175Z,19.3
2019-02-23T04:26:19.510Z,8.8
2019-02-23T04:28:19.172Z,13.2
2019-02-23T04:30:18.812Z,11
2019-02-23T04:32:19.440Z,10.8
2019-02-23T04:34:19.120Z,13.4
2019-02-23T04:36:18.941Z,10.6
2019-02-23T04:38:18.599Z,9.6
2019-02-23T04:40:18.734Z,13.7
2019-02-23T04:42:19.361Z,9.7
2019-02-23T04:44:18.988Z,13.4
2019-02-23T04:46:19.271Z,16
2019-02-23T04:48:18.894Z,14.1
2019-02-23T04:50:19.592Z,9
2019-02-23T04:52:19.236Z,12.3
2019-02-23T04:54:18.852Z,12.3
2019-02-23T04:56:19.182Z,7.5
2019-02-23T04:58:18.789Z,8.8
2019-02-23T05:00:19.439Z,11.4
2019-02-23T05:02:19.100Z,10.5
2019-02-23T05:04:18.731Z,9.1
2019-02-23T05:06:18.569Z,7.4
2019-02-23T05:08:19.197Z,8.1
2019-02-23T05:10:19.417Z,10
2019-02-23T05:12:19.038Z,7.5
2019-02-23T05:14:18.660Z,10.9
2019-02-23T05:16:18.968Z,7
2019-02-23T05:18:18.695Z,10.7
2019-02-23T05:20:19.344Z,6
2019-02-23T05:22:19.000Z,11.1
2019-02-23T05:24:18.651Z,11.6
2019-02-23T05:26:19.080Z,7
2019-02-23T05:28:18.755Z,15
2019-02-23T05:30:19.427Z,8.1
2019-02-23T05:32:19.075Z,10.3
2019-02-23T05:34:18.734Z,13.9
2019-02-23T05:36:19.092Z,11.3
2019-02-23T05:38:18.742Z,9.8
2019-02-23T05:40:18.847Z,12.3
2019-02-23T05:42:19.493Z,11.1
2019-02-23T05:44:19.117Z,9.2
2019-02-23T05:46:18.868Z,7.8
2019-02-23T05:48:19.491Z,30.2
2019-02-23T05:50:19.139Z,10.1
2019-02-23T05:52:18.783Z,9.7
2019-02-23T05:54:19.421Z,8.9
2019-02-23T05:56:19.245Z,12
2019-02-23T05:58:18.848Z,8
2019-02-23T06:00:19.518Z,13.9
2019-02-23T06:02:19.161Z,7.2
2019-02-23T06:04:18.807Z,12.9
2019-02-23T06:06:19.125Z,8.4
2019-02-23T06:08:18.733Z,12
2019-02-23T06:10:18.833Z,13
2019-02-23T06:12:19.457Z,11.6
2019-02-23T06:14:19.205Z,11.6
2019-02-23T06:16:19.039Z,10.5
2019-02-23T06:18:18.733Z,9.8
2019-02-23T06:20:19.428Z,7.3
2019-02-23T06:22:19.109Z,15.6
2019-02-23T06:24:18.723Z,8.7
2019-02-23T06:26:19.176Z,5.9
2019-02-23T06:28:18.790Z,6.8
2019-02-23T06:30:19.397Z,8.9
2019-02-23T06:32:19.017Z,16
2019-02-23T06:34:18.626Z,17
2019-02-23T06:36:19.551Z,14.5
2019-02-23T06:38:19.210Z,11.8
2019-02-23T06:40:19.354Z,11.2
2019-02-23T06:42:19.112Z,10.4
2019-02-23T06:44:18.746Z,14.1
2019-02-23T06:46:19.064Z,12.1
2019-02-23T06:48:20.242Z,7.2
2019-02-23T06:50:18.909Z,13.8
2019-02-23T06:52:19.550Z,14.8
2019-02-23T06:54:19.220Z,14.4
2019-02-23T06:56:19.537Z,11.1
2019-02-23T06:58:19.155Z,14.1
2019-02-23T07:00:18.809Z,12.3
2019-02-23T07:02:19.459Z,13.7
2019-02-23T07:04:19.105Z,8.7
2019-02-23T07:06:18.971Z,15.1
2019-02-23T07:08:18.627Z,13.3
2019-02-23T07:10:18.744Z,16.6
2019-02-23T07:12:19.346Z,9
2019-02-23T07:14:18.958Z,8
2019-02-23T07:16:19.237Z,10.1
2019-02-23T07:18:18.919Z,15.7
2019-02-23T07:20:19.590Z,9.8
2019-02-23T07:22:18.920Z,14.1
2019-02-23T07:24:19.575Z,14.3
2019-02-23T07:26:19.551Z,19.3
2019-02-23T07:28:19.165Z,8.7
2019-02-23T07:30:18.775Z,10.2
2019-02-23T07:32:19.381Z,15.1
2019-02-23T07:34:18.980Z,13.8
2019-02-23T07:36:19.530Z,12.1
2019-02-23T07:38:19.155Z,14.1
2019-02-23T07:40:19.297Z,20.6
2019-02-23T07:42:18.943Z,13.1
2019-02-23T07:44:18.591Z,16.3
2019-02-23T07:46:19.202Z,18.3
2019-02-23T07:48:18.839Z,7.5
2019-02-23T07:50:19.489Z,9.9
2019-02-23T07:52:26.823Z,9
2019-02-23T07:54:19.563Z,15.8
2019-02-23T07:56:19.525Z,13.1
2019-02-23T07:58:19.172Z,12.4
2019-02-23T08:00:18.808Z,9.4
2019-02-23T08:02:19.454Z,11.9
2019-02-23T08:04:19.100Z,16.1
2019-02-23T08:06:18.601Z,16.4
2019-02-23T08:08:19.229Z,19.5
2019-02-23T08:10:19.325Z,14.5
2019-02-23T08:12:18.959Z,17.7
2019-02-23T08:14:18.604Z,12.6
2019-02-23T08:16:19.163Z,16.8
2019-02-23T08:18:18.857Z,17.7
2019-02-23T08:20:19.602Z,8.7
2019-02-23T08:22:19.127Z,9.5
2019-02-23T08:24:18.748Z,17
2019-02-23T08:26:19.262Z,14.1
2019-02-23T08:28:18.891Z,12.4
2019-02-23T08:30:19.511Z,13.1
2019-02-23T08:32:19.119Z,23
2019-02-23T08:34:18.720Z,12.8
2019-02-23T08:36:18.601Z,13.6
2019-02-23T08:38:19.233Z,14.7
2019-02-23T08:40:19.356Z,10.8
2019-02-23T08:42:18.990Z,12
2019-02-23T08:44:18.628Z,9.8
2019-02-23T08:46:18.930Z,10.5
2019-02-23T08:48:19.572Z,11.3
2019-02-23T08:50:19.310Z,16.1
2019-02-23T08:52:18.939Z,18.7
2019-02-23T08:54:18.566Z,9.4
2019-02-23T08:56:19.175Z,13
2019-02-23T08:58:18.810Z,16.8
2019-02-23T09:00:19.466Z,11.3
2019-02-23T09:02:19.127Z,12.6
2019-02-23T09:04:18.730Z,10.9
2019-02-23T09:06:19.298Z,10.2
2019-02-23T09:08:18.947Z,9.8
2019-02-23T09:10:19.069Z,14.4
2019-02-23T09:12:18.700Z,10.1
2019-02-23T09:14:19.319Z,9.7
2019-02-23T09:16:19.427Z,10.7
2019-02-23T09:18:19.183Z,9.2
2019-02-23T09:20:29.713Z,11.3
2019-02-23T09:22:19.420Z,13.4
2019-02-23T09:24:19.048Z,6
2019-02-23T09:26:19.303Z,7.7
2019-02-23T09:28:18.924Z,9.9
2019-02-23T09:30:19.568Z,15.8
2019-02-23T09:32:19.220Z,13.5
2019-02-23T09:34:18.873Z,12.7
2019-02-23T09:36:18.711Z,12.7
2019-02-23T09:38:19.346Z,8.8
2019-02-23T09:40:19.471Z,13.8
2019-02-23T09:42:19.054Z,15.2
2019-02-23T09:44:18.690Z,14.4
2019-02-23T09:46:18.960Z,9.6
2019-02-23T09:48:18.578Z,8.9
2019-02-23T09:50:19.222Z,14.6
2019-02-23T09:52:18.860Z,10.8
2019-02-23T09:54:19.501Z,11.4
2019-02-23T09:56:18.988Z,13.9
2019-02-23T09:58:18.649Z,10.3
2019-02-23T10:00:19.277Z,9.1
2019-02-23T10:02:18.910Z,5.6
2019-02-23T10:04:19.525Z,8.8
2019-02-23T10:06:18.920Z,9.1
2019-02-23T10:08:19.573Z,12.3
2019-02-23T10:10:18.722Z,9.5
2019-02-23T10:12:19.385Z,7.6
2019-02-23T10:14:19.011Z,10.2
2019-02-23T10:16:19.318Z,12.4
2019-02-23T10:18:19.007Z,12.6
2019-02-23T10:20:18.649Z,12.5
2019-02-23T10:22:19.328Z,12.5
2019-02-23T10:24:18.967Z,15.3
2019-02-23T10:26:18.914Z,8.5
2019-02-23T10:28:19.570Z,10.6
2019-02-23T10:30:19.233Z,8.7
2019-02-23T10:32:18.885Z,14.4
2019-02-23T10:34:19.546Z,12.2
2019-02-23T10:36:18.584Z,13.2
2019-02-23T10:38:19.239Z,9.2
2019-02-23T10:40:19.371Z,10.3
2019-02-23T10:42:18.824Z,16
2019-02-23T10:44:19.437Z,12.4
2019-02-23T10:46:19.108Z,13.4
2019-02-23T10:48:18.749Z,10.3
2019-02-23T10:50:19.369Z,12.5
2019-02-23T10:52:19.002Z,12.6
2019-02-23T10:54:18.639Z,13.4
2019-02-23T10:56:18.911Z,13.3
2019-02-23T10:58:19.546Z,9.9
2019-02-23T11:00:19.178Z,8.8
2019-02-23T11:02:18.807Z,9.5
2019-02-23T11:04:19.426Z,11.3
2019-02-23T11:06:19.291Z,13.8
2019-02-23T11:08:18.905Z,9.2
2019-02-23T11:10:18.986Z,7.8
2019-02-23T11:12:18.616Z,9.7
2019-02-23T11:14:19.239Z,8.2
2019-02-23T11:16:19.246Z,11.7
2019-02-23T11:18:18.973Z,9.1
2019-02-23T11:20:18.669Z,13.6
2019-02-23T11:22:19.273Z,9
2019-02-23T11:24:18.915Z,18.7
2019-02-23T11:26:19.238Z,10.4
2019-02-23T11:28:18.879Z,8.8
2019-02-23T11:30:19.551Z,8
2019-02-23T11:32:19.196Z,8.1
2019-02-23T11:34:18.857Z,12.2
2019-02-23T11:36:18.700Z,11.2
2019-02-23T11:38:19.346Z,6.9
2019-02-23T11:40:19.460Z,11
2019-02-23T11:42:19.113Z,12.3
2019-02-23T11:44:18.762Z,7
2019-02-23T11:46:19.026Z,10.1
2019-02-23T11:48:18.694Z,9.2
2019-02-23T11:50:19.379Z,8.7
2019-02-23T11:52:19.044Z,14.9
2019-02-23T11:54:18.702Z,9.7
2019-02-23T11:56:19.283Z,9
2019-02-23T11:58:18.968Z,8.3
2019-02-23T12:00:18.636Z,9.5
2019-02-23T12:02:19.282Z,15.7
2019-02-23T12:04:18.926Z,8
2019-02-23T12:06:18.760Z,6.7
2019-02-23T12:08:19.404Z,10.9
2019-02-23T12:10:19.489Z,8.3
2019-02-23T12:12:19.136Z,8
2019-02-23T12:14:18.813Z,10.8
2019-02-23T12:16:19.161Z,6.9
2019-02-23T12:18:18.889Z,9.5
2019-02-23T12:20:19.572Z,8.3
2019-02-23T12:22:19.235Z,6.6
2019-02-23T12:24:18.902Z,4.8
2019-02-23T12:26:19.452Z,10.1
2019-02-23T12:28:19.074Z,5.3
2019-02-23T12:30:18.747Z,8
2019-02-23T12:32:19.382Z,10.8
2019-02-23T12:34:19.032Z,12
2019-02-23T12:36:19.451Z,11.1
2019-02-23T12:38:19.099Z,11.2
2019-02-23T12:40:19.207Z,11.2
2019-02-23T12:42:18.884Z,10.9
2019-02-23T12:44:19.526Z,8
2019-02-23T12:46:18.961Z,9.8
2019-02-23T12:48:18.634Z,8.7
2019-02-23T12:50:19.308Z,9.9
2019-02-23T12:52:18.951Z,10.6
2019-02-23T12:54:18.603Z,8.6
2019-02-23T12:56:19.270Z,11.4
2019-02-23T12:58:18.927Z,9.8
2019-02-23T13:00:19.582Z,9.9
2019-02-23T13:02:19.251Z,9.9
2019-02-23T13:04:18.905Z,7
2019-02-23T13:06:19.315Z,7.8
2019-02-23T13:08:18.969Z,7
2019-02-23T13:10:19.315Z,10.3
2019-02-23T13:12:18.978Z,7.1
2019-02-23T13:14:18.643Z,9.9
2019-02-23T13:16:19.504Z,13
2019-02-23T13:18:19.243Z,9.2
2019-02-23T13:20:18.913Z,12.1
2019-02-23T13:22:19.593Z,11.7
2019-02-23T13:24:28.722Z,20.6
2019-02-23T13:26:18.619Z,8.8
2019-02-23T13:28:19.294Z,9
2019-02-23T13:30:18.938Z,7.9
2019-02-23T13:32:18.611Z,9.8
2019-02-23T13:34:19.316Z,10.7
2019-02-23T13:36:19.319Z,8.3
2019-02-23T13:38:19.048Z,8.8
2019-02-23T13:40:19.200Z,8.1
2019-02-23T13:42:18.862Z,7.4
2019-02-23T13:44:19.747Z,6.6
2019-02-23T13:46:19.417Z,7.9
2019-02-23T13:48:21.445Z,9.1
2019-02-23T13:50:19.399Z,8.1
2019-02-23T13:52:19.048Z,9.7
2019-02-23T13:54:18.699Z,10.9
2019-02-23T13:56:18.631Z,8
2019-02-23T13:58:19.288Z,4.1
2019-02-23T14:00:18.959Z,7.8
2019-02-23T14:02:18.618Z,3.5
2019-02-23T14:04:19.283Z,5.6
2019-02-23T14:06:19.231Z,8.7
2019-02-23T14:08:18.873Z,8.3
2019-02-23T14:10:19.006Z,5
2019-02-23T14:12:18.668Z,10.9
2019-02-23T14:14:19.328Z,14.2
2019-02-23T14:16:19.015Z,6.2
2019-02-23T14:18:18.733Z,7.2
2019-02-23T14:20:19.431Z,5.9
2019-02-23T14:22:19.114Z,7.3
2019-02-23T14:24:18.789Z,6
2019-02-23T14:26:18.644Z,12
2019-02-23T14:28:19.307Z,8.1
2019-02-23T14:30:18.993Z,4.8
2019-02-23T14:32:18.632Z,6.6
2019-02-23T14:34:19.301Z,8.4
2019-02-23T14:36:19.632Z,4.5
2019-02-23T14:38:19.325Z,7.1
2019-02-23T14:40:19.627Z,7.3
2019-02-23T14:42:19.372Z,6.1
2019-02-23T14:44:19.051Z,7
2019-02-23T14:46:21.178Z,4.9
2019-02-23T14:48:18.907Z,8
2019-02-23T14:50:19.661Z,7
2019-02-23T14:52:19.380Z,7.5
2019-02-23T14:54:19.097Z,10.8
2019-02-23T14:56:19.515Z,6.4
2019-02-23T14:58:19.198Z,10.7
2019-02-23T15:00:18.845Z,11.5
2019-02-23T15:02:19.495Z,10.4
2019-02-23T15:04:19.149Z,6.1
2019-02-23T15:06:19.471Z,7.3
2019-02-23T15:08:19.142Z,6.4
2019-02-23T15:10:19.238Z,5.2
2019-02-23T15:12:18.855Z,7.4
2019-02-23T15:14:19.500Z,10.6
2019-02-23T15:16:19.368Z,6.9
2019-02-23T15:18:19.087Z,9.3
2019-02-23T15:20:18.736Z,7
2019-02-23T15:22:19.469Z,8
2019-02-23T15:24:19.136Z,8.3
2019-02-23T15:26:19.515Z,10.6
2019-02-23T15:28:37.817Z,7
2019-02-23T15:30:18.772Z,7.8
2019-02-23T15:32:19.486Z,10.7
2019-02-23T15:34:19.131Z,7.9
2019-02-23T15:36:19.580Z,9
2019-02-23T15:38:19.246Z,7.9
2019-02-23T15:40:19.433Z,7.9
2019-02-23T15:42:19.224Z,7.2
2019-02-23T15:44:21.908Z,10.4
2019-02-23T15:46:19.453Z,8.1
2019-02-23T15:48:19.180Z,8.3
2019-02-23T15:50:18.915Z,7.2
2019-02-23T15:52:18.707Z,9.5
2019-02-23T15:54:19.450Z,10.9
2019-02-23T15:56:18.890Z,9.7
2019-02-23T15:58:19.661Z,6.8
2019-02-23T16:00:19.367Z,5.9
2019-02-23T16:02:19.056Z,10.5
2019-02-23T16:04:18.705Z,7.3
2019-02-23T16:06:19.549Z,9.7
2019-02-23T16:08:19.178Z,12.2
2019-02-23T16:10:19.278Z,11.6
2019-02-23T16:12:18.920Z,9
2019-02-23T16:14:19.582Z,9.2
2019-02-23T16:16:18.909Z,13.2
2019-02-23T16:18:18.649Z,15.9
2019-02-23T16:20:19.371Z,10.6
2019-02-23T16:22:19.080Z,9
2019-02-23T16:24:18.716Z,12.6
2019-02-23T16:26:19.556Z,6.7
2019-02-23T16:28:19.214Z,8.8
2019-02-23T16:30:18.869Z,13.6
2019-02-23T16:32:19.517Z,9.1
2019-02-23T16:34:19.165Z,17.5
2019-02-23T16:36:18.995Z,18.3
2019-02-23T16:38:18.636Z,9.2
2019-02-23T16:40:18.778Z,8.2
2019-02-23T16:42:19.403Z,11.7
2019-02-23T16:44:19.090Z,11.6
2019-02-23T16:46:19.509Z,8.8
2019-02-23T16:48:19.172Z,12.1
2019-02-23T16:50:18.885Z,9.6
2019-02-23T16:52:18.806Z,7.5
2019-02-23T16:54:19.450Z,8.3
2019-02-23T16:56:19.327Z,8.4
2019-02-23T16:58:18.968Z,9.5
2019-02-23T17:00:18.586Z,8
2019-02-23T17:02:19.235Z,15.3
2019-02-23T17:04:18.899Z,8.8
2019-02-23T17:06:19.306Z,9.4
2019-02-23T17:08:18.974Z,10.1
2019-02-23T17:10:19.122Z,16.4
2019-02-23T17:12:18.785Z,10
2019-02-23T17:14:19.429Z,10.7
2019-02-23T17:16:18.712Z,11.2
2019-02-23T17:18:19.465Z,7.3
2019-02-23T17:20:19.106Z,13.5
2019-02-23T17:22:18.767Z,11.5
2019-02-23T17:24:19.408Z,13.4
2019-02-23T17:26:18.699Z,10.5
2019-02-23T17:28:19.336Z,11.2
2019-02-23T17:30:19.009Z,19.9
2019-02-23T17:32:18.658Z,10.5
2019-02-23T17:34:19.282Z,14.7
2019-02-23T17:36:18.918Z,10.4
2019-02-23T17:38:19.562Z,19.1
2019-02-23T17:40:18.692Z,11.1
2019-02-23T17:42:28.445Z,18.9
2019-02-23T17:44:19.168Z,14.6
2019-02-23T17:46:19.095Z,21.9
2019-02-23T17:48:18.775Z,11
2019-02-23T17:50:19.441Z,14.5
2019-02-23T17:52:19.096Z,15.8
2019-02-23T17:54:18.739Z,13
2019-02-23T17:56:19.036Z,12.5
2019-02-23T17:58:18.715Z,16.2
2019-02-23T18:00:19.380Z,15.7
2019-02-23T18:02:19.030Z,15.1
2019-02-23T18:04:18.659Z,11.2
2019-02-23T18:06:18.592Z,10
2019-02-23T18:08:19.229Z,15.8
2019-02-23T18:10:19.407Z,11
2019-02-23T18:12:19.042Z,16.1
2019-02-23T18:14:18.711Z,13.3
2019-02-23T18:16:18.591Z,12.1
2019-02-23T18:18:19.284Z,13.6
2019-02-23T18:20:18.953Z,19.1
2019-02-23T18:22:18.587Z,17.7
2019-02-23T18:24:19.214Z,12.9
2019-02-23T18:26:21.532Z,19.8
2019-02-23T18:28:19.167Z,19.1
2019-02-23T18:30:18.828Z,19.2
2019-02-23T18:32:20.070Z,18.8
2019-02-23T18:34:18.743Z,16.1
2019-02-23T18:36:19.140Z,20.1
2019-02-23T18:38:18.781Z,11.9
2019-02-23T18:40:18.894Z,16.9
2019-02-23T18:42:19.516Z,16.2
2019-02-23T18:44:19.162Z,18.4
2019-02-23T18:46:19.521Z,15.5
2019-02-23T18:48:19.163Z,18.4
2019-02-23T18:50:18.825Z,19.1
2019-02-23T18:52:19.455Z,16.3
2019-02-23T18:54:19.104Z,19.5
2019-02-23T18:56:18.948Z,17.6
2019-02-23T18:58:18.597Z,21
2019-02-23T19:00:24.775Z,23.6
2019-02-23T19:02:19.380Z,18.6
2019-02-23T19:04:19.014Z,16.5
2019-02-23T19:06:19.349Z,21.3
2019-02-23T19:08:18.992Z,16.6
2019-02-23T19:10:19.119Z,22.5
2019-02-23T19:12:18.748Z,17.2
2019-02-23T19:14:19.411Z,13.8
2019-02-23T19:16:18.748Z,23.3
2019-02-23T19:18:19.495Z,18.3
2019-02-23T19:20:19.270Z,15.3
2019-02-23T19:22:18.915Z,13.8
2019-02-23T19:24:19.548Z,18.9
2019-02-23T19:26:18.818Z,16.3
2019-02-23T19:28:19.454Z,19.1
2019-02-23T19:30:19.086Z,19.5
2019-02-23T19:32:18.730Z,17
2019-02-23T19:34:19.376Z,17.8
2019-02-23T19:36:19.286Z,18.3
2019-02-23T19:38:18.950Z,18
2019-02-23T19:40:19.064Z,19.5
2019-02-23T19:42:18.707Z,11.3
2019-02-23T19:44:19.329Z,12.3
2019-02-23T19:46:18.660Z,12.4
2019-02-23T19:48:19.338Z,15.7
2019-02-23T19:50:18.991Z,19.8
2019-02-23T19:52:18.698Z,18.3
2019-02-23T19:54:19.324Z,19.1
2019-02-23T19:56:18.677Z,20.6
2019-02-23T19:58:19.323Z,13.8
2019-02-23T20:00:18.988Z,24.5
2019-02-23T20:02:18.637Z,17.1
2019-02-23T20:04:19.296Z,18.2
2019-02-23T20:06:18.800Z,18.5
2019-02-23T20:08:19.417Z,11.7
2019-02-23T20:10:19.566Z,17.6
2019-02-23T20:12:19.051Z,21.3
2019-02-23T20:14:18.692Z,12.9
2019-02-23T20:16:19.508Z,17.3
2019-02-23T20:18:19.210Z,17.5
2019-02-23T20:20:18.859Z,14
2019-02-23T20:22:19.529Z,14.6
2019-02-23T20:24:19.191Z,12.7
2019-02-23T20:26:19.490Z,15.7
2019-02-23T20:28:19.097Z,18.3
2019-02-23T20:30:18.738Z,21.7
2019-02-23T20:32:19.351Z,18.1
2019-02-23T20:34:19.044Z,19.1
2019-02-23T20:36:19.321Z,24.9
2019-02-23T20:38:18.946Z,13.9
2019-02-23T20:40:19.047Z,20.1
2019-02-23T20:42:18.679Z,21.2
2019-02-23T20:44:19.298Z,21
2019-02-23T20:46:19.413Z,29.7
2019-02-23T20:48:19.151Z,16.8
2019-02-23T20:50:18.846Z,15.9
2019-02-23T20:52:19.558Z,16.5
2019-02-23T20:54:19.249Z,19.8
2019-02-23T20:56:19.493Z,21.1
2019-02-23T20:58:19.165Z,18.8
2019-02-23T21:00:18.830Z,17.4
2019-02-23T21:02:19.457Z,23.9
2019-02-23T21:04:19.119Z,17.3
2019-02-23T21:06:19.565Z,18.9
2019-02-23T21:08:19.327Z,23.5
2019-02-23T21:10:19.554Z,17.4
2019-02-23T21:12:19.238Z,18.4
2019-02-23T21:14:18.884Z,19.7
2019-02-23T21:16:19.168Z,22.5
2019-02-23T21:18:18.876Z,15.2
2019-02-23T21:20:19.523Z,20.2
2019-02-23T21:22:19.596Z,19.7
2019-02-23T21:24:19.222Z,18.2
2019-02-23T21:26:18.697Z,16.8
2019-02-23T21:28:19.341Z,29.3
2019-02-23T21:30:18.954Z,16.8
2019-02-23T21:32:18.606Z,13.9
2019-02-23T21:34:19.230Z,18.8
2019-02-23T21:36:19.169Z,17.8
2019-02-23T21:38:18.842Z,22.1
2019-02-23T21:40:18.924Z,22.3
2019-02-23T21:42:18.930Z,22.1
2019-02-23T21:44:18.583Z,19.8
2019-02-23T21:46:18.893Z,22.5
2019-02-23T21:48:19.522Z,18
2019-02-23T21:50:19.162Z,16.9
2019-02-23T21:52:18.814Z,17.7
2019-02-23T21:54:19.465Z,17.4
2019-02-23T21:56:18.783Z,26.2
2019-02-23T21:58:19.398Z,25
2019-02-23T22:00:19.075Z,23.1
2019-02-23T22:02:18.718Z,16.4
2019-02-23T22:04:19.358Z,18.1
2019-02-23T22:06:18.864Z,20.2
2019-02-23T22:08:19.487Z,20.7
2019-02-23T22:10:18.671Z,20.7
2019-02-23T22:12:19.348Z,20.5
2019-02-23T22:14:18.983Z,26.9
2019-02-23T22:16:19.452Z,20.9
2019-02-23T22:18:19.178Z,23.9
2019-02-23T22:20:18.840Z,24.5
2019-02-23T22:22:19.513Z,23.7
2019-02-23T22:24:19.181Z,20.9
2019-02-23T22:26:19.471Z,16.8
2019-02-23T22:28:19.167Z,22
2019-02-23T22:30:18.841Z,17.9
2019-02-23T22:32:19.496Z,23.1
2019-02-23T22:34:19.144Z,23.3
2019-02-23T22:36:18.836Z,16.1
2019-02-23T22:38:19.506Z,20.1
2019-02-23T22:40:18.645Z,26.9
2019-02-23T22:42:19.286Z,23.2
2019-02-23T22:44:18.929Z,18.8
2019-02-23T22:46:18.715Z,19.2
2019-02-23T22:48:19.334Z,22.6
2019-02-23T22:50:18.957Z,17.8
2019-02-23T22:52:19.467Z,32.6
2019-02-23T22:54:19.080Z,16.9
2019-02-23T22:56:18.855Z,19.8
2019-02-23T22:58:19.501Z,22
2019-02-23T23:00:19.133Z,24.3
2019-02-23T23:02:18.785Z,25.2
2019-02-23T23:04:19.386Z,24
2019-02-23T23:06:19.226Z,21.4
2019-02-23T23:08:18.840Z,19.2
2019-02-23T23:10:18.942Z,21.7
2019-02-23T23:12:18.583Z,17.6
2019-02-23T23:14:19.237Z,18.7
2019-02-23T23:16:19.552Z,21.4
2019-02-23T23:18:19.269Z,15.1
2019-02-23T23:20:18.922Z,19.1
2019-02-23T23:22:19.596Z,19.8
2019-02-23T23:24:19.242Z,19.9
2019-02-23T23:26:18.916Z,23.2
2019-02-23T23:28:19.533Z,16.1
2019-02-23T23:30:19.147Z,24.1
2019-02-23T23:32:18.786Z,19.5
2019-02-23T23:34:19.406Z,21.8
2019-02-23T23:36:19.260Z,22.8
2019-02-23T23:38:18.894Z,26.4
2019-02-23T23:40:19.028Z,22.5
2019-02-23T23:42:18.656Z,17
2019-02-23T23:44:19.284Z,24.2
2019-02-23T23:46:19.259Z,22.2
2019-02-23T23:48:18.904Z,23.9
2019-02-23T23:50:19.522Z,14.3
2019-02-23T23:52:19.175Z,17.4
2019-02-23T23:54:18.818Z,31.8
2019-02-23T23:56:18.660Z,11.9
2019-02-23T23:58:19.280Z,26.7
